• Join FlightAware (Why Join?)
  • Login
  • US Flag 
12:44AM EST


 

Airport Tracker/Info


-or-


 

Live Flight TrackerFlight Track Log ✈ SWA118 ✈ 19-May-2013 ✈ KBWI - KMSY

Flight Track Log - Related Links

Times and Time Zones

All times are in EDT time to prevent confusion due to time zone crossing. See the SWA118 flight status page for this flight to view local times or setup timezone preferences in your user account.

Time Position Orientation Groundspeed Altitude Reporting Facility
EDT Latitude Longitude Course Direction KTS MPH feet Rate Location/Type
09:38AM 39.1314 -76.6939 211° Southwest 228 262 1,700  Level Washington Center
09:39AM 39.1828 -76.7617 314° West 270 311 4,100 2,820 Climbing Washington Center
09:40AM 39.2167 -76.8500 296° West 274 315 7,800 3,240 Climbing Potomac TRACON
09:41AM 39.2167 -76.9500 270° West 278 320 11,100 2,340 Climbing Potomac TRACON
09:42AM 39.2167 -77.0500 270° West 329 379 12,500 2,040 Climbing Potomac TRACON
09:43AM 39.0599 -77.2627 211° Southwest  Level FlightAware Approximate
09:43AM 39.1833 -77.1833 252° West 369 425 15,300  Level Potomac TRACON
09:44AM 39.1000 -77.2500 212° Southwest 372 428 17,800 2,220 Climbing Potomac TRACON
09:45AM 39.0167 -77.3167 212° Southwest 395 455 19,600 1,800 Climbing Potomac TRACON
09:47AM 38.8219 -77.4489 208° Southwest 434 499 23,000 1,500 Climbing Washington Center
09:48AM 38.7186 -77.5153 207° Southwest 422 486 24,100 1,380 Climbing Washington Center
09:49AM 38.6275 -77.6086 219° Southwest 422 486 25,800 1,560 Climbing Washington Center
09:50AM 38.5300 -77.7069 218° Southwest 434 499 27,300 1,380 Climbing Washington Center
09:51AM 38.4547 -77.8267 231° Southwest 434 499 28,600 1,260 Climbing Washington Center
09:52AM 38.3856 -77.9625 237° Southwest 451 519 29,800 1,200 Climbing Washington Center
09:53AM 38.3117 -78.1003 236° Southwest 463 533 31,100 1,260 Climbing Washington Center
09:54AM 38.2422 -78.2356 237° Southwest 469 540 32,400 1,320 Climbing Washington Center
09:55AM 38.1683 -78.3703 235° Southwest 469 540 33,800 1,380 Climbing Washington Center
09:56AM 38.1064 -78.5103 241° Southwest 469 540 35,200 1,080 Climbing Washington Center
09:57AM 38.0592 -78.6561 248° West 455 524 36,000 360 Climbing Washington Center
09:58AM 38.0053 -78.7989 244° Southwest 455 524 36,000  Level Washington Center
09:59AM 37.9411 -78.9331 239° Southwest 455 524 36,000  Level Washington Center
10:00AM 37.8836 -79.0517 238° Southwest 450 518 36,000  Level Washington Center
10:01AM 37.8192 -79.1881 239° Southwest 450 518 36,000  Level Washington Center
10:02AM 37.7522 -79.3242 238° Southwest 450 518 36,000  Level Washington Center
10:03AM 37.6789 -79.4728 238° Southwest 461 531 36,000  Level Washington Center
10:04AM 37.6117 -79.6081 238° Southwest 456 525 36,000  Level Washington Center
10:05AM 37.5533 -79.7333 240° Southwest 456 525 36,000  Level Washington Center
10:06AM 37.4856 -79.8764 239° Southwest 463 533 36,000  Level Washington Center
10:07AM 37.4183 -80.0058 237° Southwest 463 533 36,000  Level Washington Center
10:08AM 37.3461 -80.1533 238° Southwest 455 524 36,000  Level Washington Center
10:09AM 37.2803 -80.2878 238° Southwest 455 524 36,000  Level Washington Center
10:10AM 37.1967 -80.4536 238° Southwest 446 513 36,000  Level Atlanta Center
10:11AM 37.1353 -80.5736 237° Southwest 446 513 36,000  Level Atlanta Center
10:12AM 37.0681 -80.7067 238° Southwest 452 520 36,000  Level Atlanta Center
10:13AM 36.9989 -80.8447 238° Southwest 457 526 36,000  Level Atlanta Center
10:14AM 36.9233 -80.9931 238° Southwest 462 532 36,000  Level Atlanta Center
10:15AM 36.8558 -81.1256 238° Southwest 467 537 36,000  Level Atlanta Center
10:16AM 36.7881 -81.2600 238° Southwest 462 532 36,000  Level Atlanta Center
10:17AM 36.7261 -81.3892 239° Southwest 455 524 36,000  Level Atlanta Center
10:18AM 36.6600 -81.5183 237° Southwest 455 524 36,000  Level Atlanta Center
10:19AM 36.5897 -81.6497 236° Southwest 455 524 36,000  Level Atlanta Center
10:20AM 36.5233 -81.7783 237° Southwest 455 524 36,000  Level Atlanta Center
10:21AM 36.4569 -81.9067 237° Southwest 455 524 36,000  Level Atlanta Center
10:22AM 36.3881 -82.0347 236° Southwest 450 518 36,000  Level Atlanta Center
10:23AM 36.3214 -82.1653 238° Southwest 450 518 36,000  Level Atlanta Center
10:24AM 36.2544 -82.2906 236° Southwest 445 512 36,100 600 Climbing Atlanta Center
10:25AM 36.1894 -82.4181 238° Southwest 445 512 37,300 900 Climbing Atlanta Center
10:26AM 36.1222 -82.5400 236° Southwest 440 506 38,000 300 Climbing Atlanta Center
10:27AM 36.0569 -82.6672 238° Southwest 440 506 38,000  Level Atlanta Center
10:28AM 35.9914 -82.7889 236° Southwest 440 506 38,000  Level Atlanta Center
10:29AM 35.9258 -82.9131 237° Southwest 440 506 38,000  Level Atlanta Center
10:30AM 35.8581 -83.0344 235° Southwest 440 506 38,000  Level Atlanta Center
10:31AM 35.8006 -83.1453 237° Southwest 440 506 38,000  Level Atlanta Center
10:32AM 35.7389 -83.2661 238° Southwest 433 498 38,000  Level Atlanta Center
10:33AM 35.6728 -83.3869 236° Southwest 428 493 38,000  Level Atlanta Center
10:34AM 35.6086 -83.5100 237° Southwest 428 493 38,000  Level Atlanta Center
10:35AM 35.5403 -83.6303 235° Southwest 433 498 38,000  Level Atlanta Center
10:36AM 35.4864 -83.7581 243° Southwest 428 493 38,000  Level Atlanta Center
10:37AM 35.4492 -83.8908 251° West 423 487 38,000  Level Atlanta Center
10:38AM 35.4158 -84.0261 253° West 423 487 38,000  Level Atlanta Center
10:39AM 35.3844 -84.1586 254° West 418 481 38,000  Level Atlanta Center
10:40AM 35.3528 -84.2933 254° West 418 481 38,000  Level Atlanta Center
10:41AM 35.3256 -84.4283 256° West 418 481 38,000  Level Atlanta Center
10:42AM 35.3083 -84.5631 261° West 413 475 38,000  Level Atlanta Center
10:43AM 35.2847 -84.7003 258° West 413 475 38,000  Level Atlanta Center
10:44AM 35.2650 -84.8375 260° West 413 475 38,000 -60 Level Atlanta Center
10:45AM 35.2850 -84.9775 280° West 403 464 37,900 -600 Descending Atlanta Center
10:46AM 35.3172 -85.1128 286° West 409 471 36,900 -960 Descending Atlanta Center
10:47AM 35.3514 -85.2583 286° West 419 482 36,000 -480 Descending Atlanta Center
10:48AM 35.3789 -85.4169 282° West 430 495 36,000  Level Atlanta Center
10:49AM 35.3667 -85.5669 264° West 430 495 36,000  Level Atlanta Center
10:50AM 35.3378 -85.7064 256° West 430 495 36,000  Level Atlanta Center
10:51AM 35.2528 -85.8114 225° Southwest 409 471 36,000  Level Atlanta Center
10:52AM 35.1617 -85.9086 221° Southwest 425 489 36,000  Level Atlanta Center
10:53AM 35.0683 -86.0106 222° Southwest 432 497 36,000  Level Atlanta Center
10:54AM 34.9769 -86.1097 222° Southwest 444 511 36,000  Level Atlanta Center
10:55AM 34.8961 -86.1989 222° Southwest 439 505 36,000  Level Atlanta Center
10:56AM 34.8044 -86.2978 222° Southwest 444 511 36,000  Level Atlanta Center
10:57AM 34.7108 -86.3964 221° Southwest 444 511 36,000  Level Atlanta Center
10:58AM 34.6169 -86.4972 221° Southwest 444 511 36,000  Level Atlanta Center
10:59AM 34.5253 -86.5953 221° Southwest 449 517 36,000  Level Atlanta Center
11:00AM 34.4314 -86.6933 221° Southwest 449 517 36,000  Level Atlanta Center
11:01AM 34.3375 -86.7908 221° Southwest 449 517 36,000  Level Atlanta Center
11:02AM 34.2369 -86.8983 221° Southwest 449 517 36,000  Level Atlanta Center
11:03AM 34.1428 -86.9928 220° Southwest 449 517 36,000  Level Atlanta Center
11:04AM 34.0506 -87.0925 222° Southwest 449 517 36,000  Level Atlanta Center
11:05AM 33.9606 -87.1869 221° Southwest 449 517 36,000  Level Atlanta Center
11:06AM 33.8683 -87.2836 221° Southwest 449 517 36,000  Level Atlanta Center
11:08AM 33.7208 -87.4378 221° Southwest 441 507 36,000  Level Memphis Center
11:09AM 33.6292 -87.5331 221° Southwest 441 507 36,000  Level Memphis Center
11:10AM 33.5375 -87.6283 221° Southwest 441 507 36,000  Level Memphis Center
11:11AM 33.4456 -87.7233 221° Southwest 441 507 36,000  Level Memphis Center
11:12AM 33.3556 -87.8131 220° Southwest 446 513 36,000  Level Memphis Center
11:13AM 33.2656 -87.9075 221° Southwest 441 507 36,000  Level Memphis Center
11:14AM 33.1714 -87.9994 219° Southwest 441 507 36,000  Level Memphis Center
11:15AM 33.0814 -88.0936 221° Southwest 441 507 36,000  Level Memphis Center
11:16AM 33.0097 -88.1697 222° Southwest 441 507 36,000  Level Memphis Center
11:17AM 32.9111 -88.2711 221° Southwest 433 498 36,000  Level Memphis Center
11:18AM 32.8186 -88.3647 220° Southwest 433 498 36,000  Level Memphis Center
11:19AM 32.7242 -88.4583 220° Southwest 438 504 36,000 -540 Level Memphis Center
11:20AM 32.6358 -88.5492 221° Southwest 438 504 35,000 -540 Descending Memphis Center
11:21AM 32.5472 -88.6394 221° Southwest 427 491 35,000  Level Memphis Center
11:22AM 32.4586 -88.7250 219° Southwest 427 491 35,000  Level Memphis Center
11:23AM 32.3722 -88.8125 221° Southwest 427 491 35,000  Level Memphis Center
11:24AM 32.2814 -88.9003 219° Southwest 427 491 35,000  Level Memphis Center
11:25AM 32.1925 -88.9850 219° Southwest 427 491 35,000  Level Memphis Center
11:26AM 32.1017 -89.0722 219° Southwest 427 491 35,000  Level Memphis Center
11:27AM 32.0128 -89.1594 220° Southwest 427 491 35,000 -1,080 Level Memphis Center
11:29AM 31.8283 -89.3372 219° Southwest 402 463 31,800 -1,740 Descending Houston Center
11:30AM 31.7442 -89.4167 219° Southwest 394 453 29,700 -1,860 Descending Houston Center
11:31AM 31.6639 -89.4953 220° Southwest 383 441 28,000 -900 Descending Houston Center
11:32AM 31.5764 -89.5767 218° Southwest 385 443 27,900 -540 Descending Houston Center
11:33AM 31.4764 -89.6375 207° Southwest 413 475 26,900 -1,020 Descending Houston Center
11:34AM 31.3786 -89.6961 207° Southwest 398 458 25,900 -1,080 Descending Houston Center
11:35AM 31.2614 -89.7678 208° Southwest 398 458 24,700 -1,080 Descending Houston Center
11:36AM 31.1669 -89.8258 208° Southwest 388 447 23,700 -1,380 Descending Houston Center
11:37AM 31.0722 -89.8822 207° Southwest 384 442 21,900 -1,920 Descending Houston Center
11:38AM 30.9803 -89.9383 208° Southwest 376 433 19,800 -2,040 Descending Houston Center
11:39AM 30.8908 -89.9914 207° Southwest 368 423 17,800 -2,100 Descending Houston Center
11:40AM 30.8136 -90.0408 209° Southwest 355 409 16,100 -1,980 Descending Houston Center
11:40AM 30.8039 -90.0436 194° South 355 409 15,800 -2,700 Descending Houston Center
11:41AM 30.6978 -90.0947 203° Southwest 347 399 12,700 -2,880 Descending Houston Center
11:42AM 30.5994 -90.1128 189° South 360 414 9,900 -1,560 Descending Houston Center
11:43AM 30.5072 -90.1286 188° South 282 325 9,600 -1,140 Descending Houston Center
11:44AM 30.4386 -90.1411 189° South 265 305 7,800 -1,620 Descending Houston Center
11:45AM 30.3656 -90.1539 189° South 279 321 6,300 -1,500 Descending Houston Center
11:46AM 30.3264 -90.1603 188° South 274 315 5,600 -1,260 Descending Houston Center
11:46AM 30.2803 -90.1694 190° South 267 307 5,000 -780 Descending Houston Center
11:47AM 30.2192 -90.1794 188° South 244 281 4,300 -900 Descending Houston Center
11:48AM 30.1581 -90.1961 193° South 207 238 3,300 -1,140 Descending Houston Center
11:49AM 30.1064 -90.2125 195° South 192 221 2,200 -1,020 Descending Houston Center
11:50AM 30.0650 -90.2264 196° South 149 171 1,300 -840 Descending Houston Center
11:51AM 30.0222 -90.2403 196° South 157 181 400 -780 Descending Houston Center
11:53AM 29.9833 -90.2500 190° South  Level FlightAware Approximate
12:00PM 29.9934 -90.2580 190° South  Level Estimated
12:01PM 29.9934 -90.2580 190° South  Level Estimated
12:02PM 29.9934 -90.2580 190° South  Level Estimated